Terminal Aerodrome Forecast
Issued by NWS

Current Version | Previous Version | Text Only | Print | Product List | Glossary Off
Versions: 1 2 3 4 5 6 7 8 9 10 11 12 13 14 15 16 17 18 19 20 21 22 23 24 25 26

000
FTUS41 KRLX 272300 RRA
TAFCKB
TAF
KCKB 272343Z 2800/2824 00000KT P6SM SCT050
      TEMPO 2800/2801 1SM TSRA BKN030CB OVC050
     FM280100 00000KT P6SM VCTS BKN050CB
     FM280200 00000KT P6SM BKN040
     FM280700 00000KT 5SM BR BKN025
     FM280800 00000KT 2SM BR SCT045
     FM281300 VRB03KT P6SM FEW250=

USA.gov is the U.S. government's official web portal to all federal, state and local government web resources and services.